Time;durP1;ratioP1;P1;durP2;ratioP2;P2;SDS_P1;SDS_P2;PMS_P1;PMS_P2;Temp;Humidity;BMP_temperature;BMP_pressure;BME280_temperature;BME280_humidity;BME280_pressure;Samples;Min_cycle;Max_cycle;Signal;HPM_P1;HPM_P2
2023/05/19 00:01:04;;;;;;;1.08;0.65;;;;;;;7.23;76.74;102166.81;10620995;27;20043;-79
2023/05/19 00:06:09;;;;;;;1.02;0.82;;;;;;;7.19;76.58;102165.59;10595267;28;20613;-78
2023/05/19 00:11:11;;;;;;;2.45;0.80;;;;;;;7.12;76.48;102173.00;10610766;28;20035;-79
2023/05/19 00:16:14;;;;;;;0.60;0.60;;;;;;;7.05;76.29;102173.03;10612922;28;20405;-79
2023/05/19 00:21:16;;;;;;;0.90;0.80;;;;;;;7.06;75.57;102179.34;10615093;28;20039;-78
2023/05/19 00:26:21;;;;;;;1.15;0.63;;;;;;;7.05;75.82;102174.94;10587827;28;20505;-80
2023/05/19 00:31:36;;;;;;;1.35;0.80;;;;;;;6.98;75.14;102180.44;10598380;28;20078;-79
2023/05/19 00:36:43;;;;;;;0.95;0.80;;;;;;;6.92;75.23;102193.06;10613212;28;20056;-79
2023/05/19 00:41:45;;;;;;;1.10;1.00;;;;;;;6.86;74.94;102193.94;10612986;28;20032;-79
2023/05/19 00:46:47;;;;;;;1.45;0.80;;;;;;;6.90;75.23;102189.72;10612829;28;20036;-79
2023/05/19 00:51:50;;;;;;;0.70;0.70;;;;;;;7.01;74.42;102203.72;10569458;28;20549;-78
2023/05/19 00:56:54;;;;;;;0.70;0.60;;;;;;;7.02;74.05;102211.69;10581070;28;20047;-79
2023/05/19 01:01:56;;;;;;;0.50;0.50;;;;;;;7.06;73.52;102209.34;10604789;28;20047;-79
2023/05/19 01:06:59;;;;;;;0.88;0.45;;;;;;;6.97;74.15;102216.97;10580181;28;20050;-79
2023/05/19 01:12:01;;;;;;;1.02;0.80;;;;;;;6.90;73.15;102224.34;10613253;28;20047;-79
2023/05/19 01:17:26;;;;;;;0.68;0.50;;;;;;;6.83;73.48;102224.41;10612911;28;20532;-79
2023/05/19 01:22:55;;;;;;;1.02;0.68;;;;;;;6.85;72.83;102230.47;10592847;28;20394;-80
2023/05/19 01:28:06;;;;;;;0.88;0.60;;;;;;;6.75;73.87;102241.00;10570059;28;20043;-80
2023/05/19 01:33:14;;;;;;;0.90;0.90;;;;;;;6.78;74.14;102240.59;10594351;28;20048;-79
2023/05/19 01:38:18;;;;;;;2.60;2.15;;;;;;;6.80;73.53;102245.81;10593893;28;20051;-79
2023/05/19 01:43:25;;;;;;;5.93;3.10;;;;;;;6.81;73.68;102251.06;10588785;28;20039;-80
2023/05/19 01:48:28;;;;;;;5.22;2.90;;;;;;;6.78;73.78;102256.13;10530967;28;20044;-79
2023/05/19 01:53:32;;;;;;;3.20;2.25;;;;;;;6.89;72.91;102264.44;10601973;28;20051;-79
2023/05/19 01:58:46;;;;;;;1.60;1.50;;;;;;;7.06;72.22;102281.16;10597986;28;20042;-79
2023/05/19 02:04:15;;;;;;;1.10;1.00;;;;;;;7.28;71.02;102278.94;10568683;28;20043;-79
2023/05/19 02:09:42;;;;;;;0.93;0.68;;;;;;;7.62;69.78;102274.94;10542162;28;20528;-79
2023/05/19 02:15:08;;;;;;;0.95;0.40;;;;;;;7.81;68.56;102273.97;10571389;28;20050;-80
2023/05/19 02:20:15;;;;;;;0.52;0.50;;;;;;;8.13;67.27;102280.16;10575448;28;20082;-78
2023/05/19 02:25:17;;;;;;;0.60;0.50;;;;;;;8.48;66.46;102278.81;10576180;28;20035;-79
2023/05/19 02:30:20;;;;;;;0.47;0.47;;;;;;;8.72;65.59;102286.97;10583783;28;20410;-79
2023/05/19 02:35:22;;;;;;;0.77;0.60;;;;;;;8.90;64.88;102283.38;10591770;28;20039;-79
2023/05/19 02:40:24;;;;;;;0.80;0.80;;;;;;;9.02;63.69;102280.66;10616039;28;20544;-79
2023/05/19 02:45:28;;;;;;;0.40;0.40;;;;;;;9.21;63.70;102290.56;10620759;28;20039;-79
2023/05/19 02:50:30;;;;;;;0.63;0.40;;;;;;;9.54;62.43;102281.81;10630836;28;20031;-79
2023/05/19 02:55:36;;;;;;;0.95;0.47;;;;;;;9.85;60.93;102288.09;10623968;27;20556;-80
2023/05/19 03:00:38;;;;;;;0.55;0.40;;;;;;;10.07;60.45;102293.88;10644551;28;20575;-79
2023/05/19 03:05:42;;;;;;;0.35;0.35;;;;;;;10.41;59.03;102292.22;10611734;28;20044;-80
2023/05/19 03:10:45;;;;;;;2.80;0.43;;;;;;;10.54;58.11;102295.53;10596916;28;20537;-79
2023/05/19 03:15:49;;;;;;;0.60;0.30;;;;;;;10.73;57.75;102303.63;10598728;28;20415;-79
2023/05/19 03:20:55;;;;;;;1.20;0.40;;;;;;;10.87;56.81;102310.53;10640927;28;20512;-79
2023/05/19 03:25:57;;;;;;;0.40;0.40;;;;;;;10.81;56.07;102311.50;10608600;28;20032;-79
2023/05/19 03:31:05;;;;;;;0.30;0.30;;;;;;;11.07;55.98;102323.84;10621160;28;20051;-78
2023/05/19 03:36:12;;;;;;;0.47;0.40;;;;;;;11.00;54.90;102326.75;10619000;28;20044;-78
2023/05/19 03:41:14;;;;;;;0.65;0.50;;;;;;;11.26;54.68;102336.34;10585237;27;20066;-78
2023/05/19 03:46:17;;;;;;;0.40;0.40;;;;;;;11.56;53.46;102333.34;10640511;27;20051;-78
2023/05/19 03:51:27;;;;;;;0.55;0.52;;;;;;;11.49;53.00;102340.94;10657889;27;20508;-79
2023/05/19 03:56:31;;;;;;;0.63;0.63;;;;;;;11.73;52.94;102347.13;10640383;27;20408;-78
2023/05/19 04:01:35;;;;;;;1.23;1.00;;;;;;;11.88;52.44;102349.38;10627240;27;20035;-78
2023/05/19 04:06:37;;;;;;;0.95;0.50;;;;;;;11.86;52.64;102359.78;10644466;27;20032;-80
2023/05/19 04:11:40;;;;;;;0.75;0.50;;;;;;;11.14;53.62;102366.63;10636737;27;20445;-79
2023/05/19 04:16:42;;;;;;;0.63;0.40;;;;;;;11.79;53.13;102362.66;10622483;27;20049;-79
2023/05/19 04:21:45;;;;;;;2.08;0.50;;;;;;;11.83;51.71;102360.28;10629000;27;20035;-79
2023/05/19 04:26:48;;;;;;;0.40;0.40;;;;;;;11.07;53.23;102367.81;10613808;27;20035;-80
2023/05/19 04:31:57;;;;;;;0.32;0.30;;;;;;;10.79;54.66;102368.59;10599634;27;20054;-81
2023/05/19 04:37:01;;;;;;;0.80;0.35;;;;;;;10.91;54.29;102366.63;10612820;27;20046;-81
2023/05/19 04:42:04;;;;;;;0.43;0.40;;;;;;;10.92;54.61;102371.06;10654483;27;20049;-81
2023/05/19 04:47:08;;;;;;;0.43;0.43;;;;;;;11.01;54.69;102377.88;10631576;27;20040;-81
2023/05/19 04:52:10;;;;;;;0.55;0.30;;;;;;;11.13;54.66;102375.94;10595889;28;20044;-81
2023/05/19 04:57:13;;;;;;;0.75;0.57;;;;;;;11.27;53.83;102375.63;10630427;27;20042;-80
2023/05/19 05:02:15;;;;;;;0.40;0.40;;;;;;;11.90;52.87;102370.03;10622671;27;20489;-81
2023/05/19 05:07:18;;;;;;;0.40;0.40;;;;;;;13.03;50.66;102372.63;10608548;27;20032;-80
2023/05/19 05:12:20;;;;;;;0.40;0.40;;;;;;;13.10;50.17;102370.50;10638143;27;20705;-81
2023/05/19 05:17:24;;;;;;;0.40;0.40;;;;;;;13.58;48.92;102369.75;10596366;27;20040;-80
2023/05/19 05:22:27;;;;;;;0.40;0.40;;;;;;;14.01;48.03;102374.31;10614721;27;20050;-80
2023/05/19 05:27:30;;;;;;;2.05;0.63;;;;;;;14.64;47.97;102364.38;10593901;27;20043;-81
2023/05/19 05:32:37;;;;;;;3.72;0.60;;;;;;;15.34;46.07;102365.81;10589442;27;20047;-80
2023/05/19 05:37:46;;;;;;;0.28;0.28;;;;;;;14.82;45.32;102382.44;10620617;27;20031;-79
2023/05/19 05:42:48;;;;;;;0.63;0.20;;;;;;;14.18;44.13;102391.59;10633716;27;20054;-79
2023/05/19 05:47:52;;;;;;;0.20;0.20;;;;;;;13.80;45.08;102397.28;10595533;27;20050;-79
2023/05/19 05:52:56;;;;;;;0.55;0.20;;;;;;;14.27;44.26;102399.41;10593348;27;20039;-80
2023/05/19 05:58:01;;;;;;;0.95;0.20;;;;;;;14.24;44.90;102392.47;10605825;27;20070;-79
2023/05/19 06:03:04;;;;;;;0.90;0.30;;;;;;;15.08;43.32;102388.91;10623223;27;20039;-79
2023/05/19 06:08:06;;;;;;;0.73;0.30;;;;;;;14.62;43.96;102396.97;10631197;27;20050;-79
2023/05/19 06:13:09;;;;;;;0.80;0.20;;;;;;;13.70;44.62;102416.47;10601545;27;20039;-80
2023/05/19 06:18:13;;;;;;;0.55;0.30;;;;;;;12.95;47.27;102416.06;10614045;27;20062;-80
2023/05/19 06:23:15;;;;;;;0.30;0.30;;;;;;;14.03;44.62;102408.00;10616732;27;20039;-76
2023/05/19 06:28:17;;;;;;;1.35;0.40;;;;;;;15.03;43.94;102413.78;10622761;27;20401;-77
2023/05/19 06:33:20;;;;;;;0.38;0.30;;;;;;;15.49;42.05;102422.31;10634333;27;20046;-75
2023/05/19 06:38:22;;;;;;;1.02;0.28;;;;;;;15.59;41.87;102420.44;10651252;27;20047;-76
2023/05/19 06:43:26;;;;;;;0.55;0.30;;;;;;;15.80;41.01;102424.13;10647202;28;20051;-76
2023/05/19 06:48:33;;;;;;;0.10;0.10;;;;;;;15.62;41.54;102424.63;10628148;27;20409;-77
2023/05/19 06:53:35;;;;;;;0.77;0.25;;;;;;;15.91;41.15;102416.66;10590747;28;20401;-75
2023/05/19 06:58:42;;;;;;;0.40;0.40;;;;;;;15.87;41.48;102419.13;10626438;28;20046;-78
2023/05/19 07:03:46;;;;;;;0.63;0.40;;;;;;;15.39;41.30;102406.50;10599230;27;20543;-73
2023/05/19 07:08:49;;;;;;;0.40;0.32;;;;;;;14.43;43.50;102426.91;10629330;28;20042;-72
2023/05/19 07:13:52;;;;;;;0.50;0.50;;;;;;;15.23;42.15;102413.88;10619359;28;20054;-72
2023/05/19 07:19:00;;;;;;;0.60;0.30;;;;;;;15.95;42.08;102407.50;10613129;27;20051;-72
2023/05/19 07:24:03;;;;;;;1.90;0.40;;;;;;;17.09;38.55;102418.31;10687191;27;20780;-73
2023/05/19 07:29:05;;;;;;;0.60;0.28;;;;;;;17.60;37.48;102409.78;10655995;27;20047;-73
2023/05/19 07:34:07;;;;;;;0.30;0.30;;;;;;;16.96;38.59;102407.78;10615120;28;20043;-73
2023/05/19 07:39:10;;;;;;;0.22;0.20;;;;;;;17.48;37.12;102419.25;10540677;28;20040;-73
2023/05/19 07:44:12;;;;;;;0.30;0.25;;;;;;;17.89;36.88;102421.06;10615468;28;20656;-72
2023/05/19 07:49:14;;;;;;;0.63;0.30;;;;;;;17.12;37.15;102421.34;10606290;28;20035;-72
2023/05/19 07:54:17;;;;;;;0.40;0.40;;;;;;;17.85;36.93;102423.53;10596892;28;20039;-72
2023/05/19 07:59:19;;;;;;;0.20;0.20;;;;;;;18.20;36.07;102427.19;10616090;28;20043;-72
2023/05/19 08:04:21;;;;;;;0.30;0.30;;;;;;;18.26;35.29;102426.91;10615596;28;20035;-72
2023/05/19 08:09:23;;;;;;;0.20;0.20;;;;;;;18.24;35.73;102429.13;10613518;28;20045;-77
2023/05/19 08:14:26;;;;;;;0.50;0.50;;;;;;;17.63;35.68;102423.91;10596965;28;20497;-75
2023/05/19 08:19:28;;;;;;;1.27;0.75;;;;;;;16.16;37.91;102427.78;10599435;28;20528;-73
2023/05/19 08:24:32;;;;;;;0.10;0.10;;;;;;;16.36;37.49;102418.66;10581747;28;20050;-75
2023/05/19 08:29:35;;;;;;;2.47;0.55;;;;;;;17.14;35.94;102432.16;10615383;27;20509;-75
2023/05/19 08:34:37;;;;;;;1.83;0.30;;;;;;;16.65;37.25;102424.44;10648000;27;20039;-74
2023/05/19 08:39:40;;;;;;;0.40;0.38;;;;;;;17.68;35.61;102423.91;10654438;27;20035;-75
2023/05/19 08:44:42;;;;;;;0.38;0.30;;;;;;;18.27;34.84;102430.50;10638233;27;20519;-75
2023/05/19 08:49:46;;;;;;;0.52;0.40;;;;;;;17.63;34.48;102440.56;10656576;27;20066;-75
2023/05/19 08:54:59;;;;;;;0.47;0.13;;;;;;;18.10;34.02;102433.69;10656442;27;20078;-75
2023/05/19 09:00:11;;;;;;;0.70;0.50;;;;;;;18.80;32.54;102425.06;10650603;27;20517;-75
2023/05/19 09:05:15;;;;;;;0.30;0.30;;;;;;;17.62;33.30;102427.81;10616925;27;20028;-75
2023/05/19 09:10:18;;;;;;;0.40;0.32;;;;;;;17.94;33.41;102429.34;10577537;28;20050;-75
2023/05/19 09:15:25;;;;;;;2.85;0.50;;;;;;;17.40;33.93;102427.38;10613077;28;20035;-74
2023/05/19 09:20:29;;;;;;;1.08;0.45;;;;;;;16.68;34.47;102428.66;10630235;27;20039;-74
2023/05/19 09:25:31;;;;;;;0.40;0.40;;;;;;;16.14;35.92;102423.59;10619858;27;20412;-74
2023/05/19 09:30:34;;;;;;;0.68;0.30;;;;;;;15.69;36.75;102419.66;10619336;27;20043;-74
2023/05/19 09:35:36;;;;;;;1.13;0.68;;;;;;;15.01;37.34;102421.53;10588018;28;20075;-74
2023/05/19 09:40:38;;;;;;;0.60;0.60;;;;;;;15.03;37.65;102428.44;10554742;28;20036;-74
2023/05/19 09:45:41;;;;;;;0.40;0.40;;;;;;;15.37;37.21;102417.00;10533403;28;20043;-73
2023/05/19 09:50:44;;;;;;;1.05;0.40;;;;;;;15.28;37.55;102422.22;10560071;28;20039;-74
2023/05/19 09:55:47;;;;;;;0.38;0.38;;;;;;;15.01;37.73;102427.88;10576631;28;20678;-76
2023/05/19 10:00:49;;;;;;;2.15;0.30;;;;;;;15.11;38.46;102413.28;10593218;28;20556;-76
2023/05/19 10:05:52;;;;;;;1.98;0.82;;;;;;;15.31;37.88;102424.47;10593374;28;20406;-76
2023/05/19 10:10:54;;;;;;;3.83;0.70;;;;;;;15.14;38.53;102421.06;10576151;28;20055;-76
2023/05/19 10:15:57;;;;;;;1.17;0.60;;;;;;;15.22;38.16;102416.94;10576197;28;20047;-74
2023/05/19 10:21:00;;;;;;;0.47;0.47;;;;;;;15.06;38.30;102407.72;10589080;28;20058;-75
2023/05/19 10:26:08;;;;;;;0.65;0.60;;;;;;;15.18;38.51;102407.50;10609252;28;20051;-75
2023/05/19 10:31:16;;;;;;;0.60;0.52;;;;;;;15.18;38.31;102408.34;10591584;27;20054;-74
2023/05/19 10:36:46;;;;;;;1.45;0.50;;;;;;;15.32;38.16;102405.94;10639261;27;20409;-75
2023/05/19 10:42:09;;;;;;;0.90;0.50;;;;;;;15.36;38.13;102404.28;10594788;28;20036;-74
2023/05/19 10:47:12;;;;;;;0.40;0.40;;;;;;;15.42;38.76;102400.41;10613561;28;20050;-75
2023/05/19 10:52:28;;;;;;;1.38;0.45;;;;;;;15.38;38.00;102400.13;10609291;28;20051;-75
2023/05/19 10:57:34;;;;;;;0.40;0.40;;;;;;;15.52;38.04;102405.16;10617187;28;20579;-75
2023/05/19 11:02:41;;;;;;;1.48;0.65;;;;;;;15.45;37.76;102410.97;10620237;27;20505;-74
2023/05/19 11:07:54;;;;;;;0.57;0.52;;;;;;;15.30;38.79;102408.97;10599992;28;20046;-75
2023/05/19 11:12:56;;;;;;;0.60;0.50;;;;;;;15.52;37.85;102402.41;10600414;28;20047;-74
2023/05/19 11:18:00;;;;;;;1.20;1.15;;;;;;;15.59;38.31;102408.53;10622990;27;20489;-74
2023/05/19 11:23:05;;;;;;;1.60;0.55;;;;;;;15.43;39.43;102412.31;10617269;27;20039;-75
2023/05/19 11:28:11;;;;;;;1.42;0.70;;;;;;;15.72;41.55;102412.72;10660096;27;20058;-75
2023/05/19 11:33:13;;;;;;;0.70;0.63;;;;;;;15.80;42.86;102406.69;10641379;27;20051;-75
2023/05/19 11:38:19;;;;;;;0.80;0.70;;;;;;;15.65;38.20;102413.84;10655341;27;20054;-75
2023/05/19 11:43:22;;;;;;;0.93;0.63;;;;;;;15.56;43.07;102417.34;10659841;27;20039;-75
2023/05/19 11:48:25;;;;;;;1.17;0.80;;;;;;;15.58;44.73;102404.06;10641546;27;20042;-75
2023/05/19 11:53:30;;;;;;;1.13;0.70;;;;;;;15.62;44.71;102405.25;10659341;27;20054;-75
2023/05/19 11:58:32;;;;;;;0.90;0.75;;;;;;;15.56;44.63;102403.50;10626578;27;20059;-75
2023/05/19 12:03:34;;;;;;;2.20;0.75;;;;;;;15.45;44.83;102410.97;10604227;27;20039;-75
2023/05/19 12:08:37;;;;;;;3.35;0.68;;;;;;;15.46;45.47;102407.09;10657430;27;20031;-72
2023/05/19 12:13:39;;;;;;;2.05;0.85;;;;;;;15.52;45.05;102406.00;10624665;27;20031;-72
2023/05/19 12:18:41;;;;;;;1.17;0.70;;;;;;;15.44;45.32;102412.03;10653974;27;20043;-72
2023/05/19 12:23:43;;;;;;;1.00;0.60;;;;;;;15.35;45.94;102408.16;10647583;27;20043;-72
2023/05/19 12:28:46;;;;;;;1.77;0.70;;;;;;;15.35;46.14;102411.75;10645643;27;20054;-72
2023/05/19 12:33:51;;;;;;;2.25;1.15;;;;;;;15.30;45.73;102416.44;10657552;27;20066;-72
2023/05/19 12:38:54;;;;;;;1.60;0.88;;;;;;;15.21;45.74;102416.09;10647619;27;20046;-73
2023/05/19 12:43:56;;;;;;;1.25;0.70;;;;;;;15.07;46.40;102424.03;10632345;27;20042;-72
2023/05/19 12:49:02;;;;;;;1.25;0.68;;;;;;;15.17;46.22;102426.03;10634325;27;20043;-73
2023/05/19 12:54:04;;;;;;;0.73;0.65;;;;;;;15.04;46.28;102423.75;10654961;27;20420;-71
2023/05/19 12:59:06;;;;;;;0.55;0.45;;;;;;;14.91;46.36;102425.03;10653017;27;20051;-73
2023/05/19 13:04:08;;;;;;;0.57;0.50;;;;;;;14.96;46.50;102429.78;10621276;27;20532;-72
2023/05/19 13:09:10;;;;;;;0.77;0.75;;;;;;;14.91;46.83;102447.16;10647089;27;20043;-72
2023/05/19 13:14:14;;;;;;;1.95;0.70;;;;;;;14.83;46.49;102436.59;10654217;27;20043;-72
2023/05/19 13:19:18;;;;;;;1.05;0.80;;;;;;;14.80;47.30;102436.31;10646699;27;20505;-72
2023/05/19 13:24:20;;;;;;;1.50;0.90;;;;;;;14.67;46.46;102432.91;10636481;27;20417;-72
2023/05/19 13:29:22;;;;;;;1.10;0.82;;;;;;;14.64;46.83;102441.72;10636950;27;20050;-72
2023/05/19 13:34:24;;;;;;;1.80;1.02;;;;;;;14.62;47.22;102440.34;10627864;27;20525;-72
2023/05/19 13:39:26;;;;;;;2.15;1.02;;;;;;;14.63;46.75;102434.53;10630696;27;20039;-72
2023/05/19 13:44:29;;;;;;;0.70;0.70;;;;;;;14.37;47.71;102438.13;10635405;27;20046;-71
2023/05/19 13:49:36;;;;;;;1.58;0.80;;;;;;;14.26;47.09;102431.72;10628254;27;20043;-75
2023/05/19 13:54:43;;;;;;;;;;;;;;;14.18;47.74;102434.94;10627233;27;20093;-74
2023/05/19 13:59:46;;;;;;;0.88;0.70;;;;;;;14.19;47.85;102437.44;10635620;27;19919;-74
2023/05/19 14:04:48;;;;;;;1.33;0.73;;;;;;;14.11;48.56;102437.91;10637527;27;20039;-71
2023/05/19 14:09:51;;;;;;;1.90;0.93;;;;;;;14.09;48.66;102442.88;10634425;27;20035;-74
2023/05/19 14:14:53;;;;;;;1.63;0.82;;;;;;;13.85;49.05;102447.00;10653547;27;20057;-74
2023/05/19 14:19:55;;;;;;;3.13;0.68;;;;;;;13.82;49.30;102453.06;10614211;27;20050;-72
2023/05/19 14:24:59;;;;;;;1.23;0.63;;;;;;;13.76;50.00;102451.34;10644090;27;20047;-74
2023/05/19 14:30:01;;;;;;;1.10;0.60;;;;;;;13.79;49.37;102448.06;10649734;27;20608;-74
2023/05/19 14:35:04;;;;;;;1.33;0.77;;;;;;;13.76;49.88;102437.53;10644304;27;20046;-74
2023/05/19 14:40:06;;;;;;;3.30;0.80;;;;;;;13.73;50.70;102438.06;10645800;27;20513;-73
2023/05/19 14:45:09;;;;;;;1.88;0.82;;;;;;;13.74;51.32;102439.72;10625938;28;20500;-73
2023/05/19 14:50:12;;;;;;;2.22;0.80;;;;;;;13.71;51.39;102446.59;10656791;27;20501;-73
2023/05/19 14:55:14;;;;;;;0.98;0.70;;;;;;;13.73;51.44;102446.34;10606778;27;20414;-74
2023/05/19 15:00:16;;;;;;;1.30;1.00;;;;;;;13.84;51.35;102453.63;10603764;28;20408;-74
2023/05/19 15:05:19;;;;;;;1.08;0.73;;;;;;;13.77;51.59;102458.50;10648441;28;20047;-74
2023/05/19 15:10:21;;;;;;;0.60;0.60;;;;;;;13.63;51.12;102463.59;10639903;27;20051;-74
2023/05/19 15:15:23;;;;;;;1.08;0.70;;;;;;;13.62;51.48;102470.19;10647525;28;20032;-74
2023/05/19 15:20:25;;;;;;;2.08;1.10;;;;;;;13.65;51.58;102469.69;10630242;27;20039;-79
2023/05/19 15:25:27;;;;;;;0.68;0.60;;;;;;;13.58;51.54;102480.91;10640881;28;20028;-75
2023/05/19 15:30:30;;;;;;;3.42;1.30;;;;;;;13.50;51.22;102477.75;10601610;28;20042;-73
2023/05/19 15:35:32;;;;;;;0.88;0.50;;;;;;;13.39;51.64;102479.56;10584150;28;20032;-71
2023/05/19 15:40:35;;;;;;;2.83;0.95;;;;;;;13.34;51.62;102486.91;10571682;28;20051;-86
2023/05/19 15:45:37;;;;;;;3.10;1.02;;;;;;;13.32;52.23;102480.81;10563644;27;20043;-76
2023/05/19 15:50:39;;;;;;;2.95;0.90;;;;;;;13.29;52.21;102479.41;10597980;28;20031;-76
2023/05/19 15:55:42;;;;;;;2.65;1.10;;;;;;;13.32;52.23;102484.41;10605925;28;20079;-75
2023/05/19 16:00:44;;;;;;;1.85;0.80;;;;;;;13.37;52.10;102487.25;10612697;27;20042;-75
2023/05/19 16:05:46;;;;;;;0.70;0.60;;;;;;;13.34;52.38;102489.66;10610074;27;20043;-76
2023/05/19 16:10:48;;;;;;;2.03;0.70;;;;;;;13.20;52.24;102494.72;10597814;28;20387;-73
2023/05/19 16:15:51;;;;;;;1.23;0.70;;;;;;;13.21;52.72;102490.88;10585153;27;20039;-74
2023/05/19 16:20:53;;;;;;;1.35;1.13;;;;;;;13.23;52.58;102488.72;10600582;27;20039;-72
2023/05/19 16:25:56;;;;;;;4.45;1.60;;;;;;;13.20;53.06;102503.84;10594583;28;20043;-72
2023/05/19 16:30:58;;;;;;;1.13;0.70;;;;;;;13.19;52.70;102496.66;10631224;27;20048;-72
2023/05/19 16:36:01;;;;;;;2.13;0.85;;;;;;;13.21;52.88;102499.16;10643061;27;20128;-78
2023/05/19 16:41:05;;;;;;;2.00;1.23;;;;;;;13.25;53.19;102492.88;10641870;27;20149;-75
2023/05/19 16:46:08;;;;;;;1.25;1.00;;;;;;;13.25;52.91;102505.81;10609966;27;20533;-73
2023/05/19 16:51:10;;;;;;;1.23;0.77;;;;;;;13.30;52.80;102500.38;10649474;27;20042;-73
2023/05/19 16:56:12;;;;;;;3.38;1.40;;;;;;;13.29;52.55;102509.75;10625356;27;20039;-72
2023/05/19 17:01:16;;;;;;;1.42;1.13;;;;;;;13.18;53.23;102507.91;10613468;27;20039;-73
2023/05/19 17:06:18;;;;;;;5.03;1.02;;;;;;;13.08;52.93;102513.25;10613514;27;20036;-73
2023/05/19 17:11:20;;;;;;;3.25;1.00;;;;;;;13.04;53.65;102518.44;10631279;27;20039;-73
2023/05/19 17:16:22;;;;;;;4.57;1.38;;;;;;;13.04;53.33;102504.66;10637203;27;20044;-71
2023/05/19 17:21:25;;;;;;;4.30;1.27;;;;;;;12.91;53.70;102508.59;10651749;27;20178;-72
2023/05/19 17:26:27;;;;;;;3.38;1.45;;;;;;;12.75;54.44;102514.09;10632638;27;20044;-73
2023/05/19 17:31:29;;;;;;;2.33;0.98;;;;;;;12.79;54.56;102512.50;10601539;27;20047;-72
2023/05/19 17:36:32;;;;;;;5.40;1.73;;;;;;;12.92;54.03;102499.22;10606610;28;20039;-72
2023/05/19 17:41:34;;;;;;;1.63;1.33;;;;;;;12.90;54.11;102501.41;10565873;28;20035;-73
2023/05/19 17:46:37;;;;;;;2.85;1.75;;;;;;;12.79;54.40;102502.31;10604642;28;20039;-73
2023/05/19 17:51:40;;;;;;;2.65;1.48;;;;;;;12.73;54.19;102495.06;10568477;28;20039;-73
2023/05/19 17:56:43;;;;;;;2.13;1.40;;;;;;;12.61;54.73;102497.06;10595041;28;20035;-73
2023/05/19 18:01:45;;;;;;;2.60;1.60;;;;;;;12.46;55.53;102499.53;10552385;28;20031;-73
2023/05/19 18:06:50;;;;;;;6.47;1.77;;;;;;;12.40;55.60;102495.03;10580374;28;20527;-73
2023/05/19 18:11:53;;;;;;;3.17;1.08;;;;;;;12.41;55.64;102507.72;10587721;28;20038;-72
2023/05/19 18:16:55;;;;;;;2.42;1.50;;;;;;;12.44;56.10;102507.22;10583984;28;20417;-71
2023/05/19 18:21:58;;;;;;;4.10;1.60;;;;;;;12.31;56.13;102513.88;10597450;28;20040;-73
2023/05/19 18:27:01;;;;;;;4.18;1.45;;;;;;;12.22;56.90;102510.69;10592857;28;20051;-73
2023/05/19 18:32:04;;;;;;;5.72;1.63;;;;;;;12.30;56.70;102518.53;10589448;28;20039;-72
2023/05/19 18:37:06;;;;;;;3.90;1.95;;;;;;;12.19;56.65;102524.94;10604233;28;20047;-72
2023/05/19 18:42:08;;;;;;;3.88;1.60;;;;;;;12.10;56.61;102528.31;10602811;28;20540;-73
2023/05/19 18:47:11;;;;;;;2.80;1.30;;;;;;;12.03;57.25;102533.97;10603331;28;20044;-71
2023/05/19 18:52:13;;;;;;;3.53;2.03;;;;;;;11.92;57.54;102537.59;10619259;28;20129;-71
2023/05/19 18:57:21;;;;;;;2.85;1.40;;;;;;;11.72;58.72;102533.31;10589458;28;20050;-73
2023/05/19 19:02:23;;;;;;;3.30;1.38;;;;;;;11.80;58.29;102534.03;10589503;28;20028;-72
2023/05/19 19:07:26;;;;;;;2.15;1.58;;;;;;;11.70;59.28;102529.97;10592918;28;20038;-72
2023/05/19 19:12:29;;;;;;;3.40;1.30;;;;;;;11.55;59.53;102537.06;10596516;28;20090;-73
2023/05/19 19:17:31;;;;;;;4.97;1.73;;;;;;;11.43;59.45;102545.31;10608671;28;20063;-74
2023/05/19 19:22:33;;;;;;;2.10;1.25;;;;;;;11.28;59.63;102539.44;10600299;27;20036;-71
2023/05/19 19:27:35;;;;;;;2.03;1.30;;;;;;;11.35;60.16;102542.94;10600446;28;20047;-74
2023/05/19 19:32:37;;;;;;;4.18;1.88;;;;;;;11.25;60.00;102550.94;10598693;28;20054;-73
2023/05/19 19:37:39;;;;;;;5.60;1.50;;;;;;;11.12;60.89;102543.78;10627899;27;20047;-71
2023/05/19 19:42:42;;;;;;;3.20;1.98;;;;;;;11.05;61.17;102549.38;10607679;28;20520;-70
2023/05/19 19:47:44;;;;;;;5.88;1.98;;;;;;;10.99;61.83;102550.34;10593716;27;20039;-70
2023/05/19 19:52:46;;;;;;;3.67;2.08;;;;;;;10.92;61.70;102555.06;10613394;28;20047;-70
2023/05/19 19:57:51;;;;;;;3.55;2.35;;;;;;;10.80;62.35;102554.25;10599194;27;20047;-69
2023/05/19 20:02:53;;;;;;;4.65;2.28;;;;;;;10.77;62.97;102554.72;10584396;28;20035;-70
2023/05/19 20:07:55;;;;;;;5.43;2.22;;;;;;;10.75;63.00;102554.09;10580885;28;20077;-70
2023/05/19 20:12:58;;;;;;;4.32;1.95;;;;;;;10.90;64.27;102559.13;10584551;28;20044;-72
2023/05/19 20:18:00;;;;;;;4.68;2.20;;;;;;;12.22;60.56;102554.72;10605762;27;20043;-71
2023/05/19 20:23:03;;;;;;;4.03;2.10;;;;;;;12.49;59.13;102565.97;10571168;27;20126;-71
2023/05/19 20:28:05;;;;;;;4.20;2.05;;;;;;;13.16;57.20;102552.25;10590166;28;20035;-72
2023/05/19 20:33:10;;;;;;;2.88;1.90;;;;;;;13.42;56.66;102559.03;10584393;28;20058;-71
2023/05/19 20:38:12;;;;;;;4.15;1.45;;;;;;;13.14;57.26;102561.84;10609300;28;20416;-72
2023/05/19 20:43:15;;;;;;;2.65;1.67;;;;;;;13.15;57.47;102567.09;10596001;28;20043;-71
2023/05/19 20:48:17;;;;;;;3.05;1.50;;;;;;;13.07;57.96;102572.22;10598488;28;20043;-73
2023/05/19 20:53:20;;;;;;;3.75;1.58;;;;;;;12.71;58.77;102577.13;10609456;28;20039;-73
2023/05/19 20:58:25;;;;;;;2.97;1.67;;;;;;;12.86;58.99;102574.66;10598434;28;20043;-73
2023/05/19 21:03:29;;;;;;;5.25;2.45;;;;;;;12.97;59.51;102584.72;10605548;28;20039;-70
2023/05/19 21:08:31;;;;;;;2.97;1.90;;;;;;;12.99;59.18;102579.81;10605171;28;20039;-70
2023/05/19 21:13:37;;;;;;;3.88;1.80;;;;;;;13.00;59.07;102588.91;10597830;27;20413;-70
2023/05/19 21:18:39;;;;;;;2.92;1.95;;;;;;;12.99;60.11;102582.56;10608025;27;20500;-71
2023/05/19 21:23:42;;;;;;;3.20;2.35;;;;;;;12.88;59.98;102597.28;10596080;27;20050;-71
2023/05/19 21:28:44;;;;;;;4.30;2.60;;;;;;;12.96;60.02;102596.00;10601849;27;20052;-71
2023/05/19 21:33:46;;;;;;;7.18;3.50;;;;;;;12.93;60.59;102599.28;10585334;28;20079;-70
2023/05/19 21:38:51;;;;;;;5.28;3.25;;;;;;;13.15;60.04;102602.09;10593946;27;20543;-69
2023/05/19 21:43:53;;;;;;;5.00;2.90;;;;;;;12.95;59.99;102602.59;10579231;27;20043;-70
2023/05/19 21:48:56;;;;;;;4.78;2.30;;;;;;;12.87;60.07;102600.28;10571968;28;20035;-71
2023/05/19 21:53:58;;;;;;;2.55;2.13;;;;;;;12.80;60.55;102597.66;10556760;28;20382;-72
2023/05/19 21:59:00;;;;;;;2.65;1.83;;;;;;;12.80;60.98;102600.41;10574419;27;20039;-71
2023/05/19 22:04:02;;;;;;;1.98;1.60;;;;;;;12.85;60.88;102597.78;10588100;27;20036;-72
2023/05/19 22:09:04;;;;;;;2.42;1.30;;;;;;;12.73;61.13;102601.66;10580518;28;20043;-72
2023/05/19 22:14:12;;;;;;;3.58;1.60;;;;;;;12.57;61.78;102609.63;10596210;28;20036;-72
2023/05/19 22:19:14;;;;;;;4.43;1.38;;;;;;;12.36;62.19;102599.31;10578001;28;20040;-73
2023/05/19 22:24:17;;;;;;;2.90;1.42;;;;;;;12.54;62.23;102604.63;10575575;27;20035;-73
2023/05/19 22:29:19;;;;;;;2.60;1.38;;;;;;;12.41;62.29;102606.84;10612291;27;20051;-73
2023/05/19 22:34:21;;;;;;;3.47;1.60;;;;;;;12.50;62.06;102608.13;10593317;27;20039;-73
2023/05/19 22:39:23;;;;;;;4.75;2.13;;;;;;;12.81;61.51;102609.50;10572432;28;20040;-73
2023/05/19 22:44:26;;;;;;;4.25;1.90;;;;;;;12.83;60.95;102610.94;10607256;28;20062;-73
2023/05/19 22:49:28;;;;;;;3.42;1.98;;;;;;;12.80;61.07;102611.44;10593800;28;20036;-73
2023/05/19 22:54:30;;;;;;;3.53;1.85;;;;;;;12.70;61.02;102614.03;10583003;27;20036;-73
2023/05/19 22:59:34;;;;;;;2.72;1.77;;;;;;;12.61;61.98;102618.25;10607290;27;20058;-73
2023/05/19 23:04:36;;;;;;;3.67;1.85;;;;;;;12.68;61.00;102610.69;10583968;28;20036;-74
2023/05/19 23:09:38;;;;;;;4.82;2.83;;;;;;;12.72;61.26;102611.84;10622105;28;20468;-73
2023/05/19 23:14:40;;;;;;;8.88;5.28;;;;;;;12.37;61.01;102618.34;10595187;28;20046;-73
2023/05/19 23:19:43;;;;;;;9.18;5.78;;;;;;;12.08;60.86;102613.88;10585951;28;20063;-73